NCAR-RAP Real-Time Weather Data

Output produced by METARs form (18 August 2018  01:02 UTC)
found at http://weather.rap.ucar.edu/surface/
 
RJBD 180000Z VRB03KT 9999 FEW030 BKN/// 26/18 Q1011
RJBD 172300Z 35005KT 9999 FEW030 BKN/// 25/17 Q1011
RJBD 172240Z 35004KT 9999 FEW030 BKN/// 24/17 Q1011 RMK 1CU030 A2987
RJBD 171000Z 34008KT 9999 FEW035 SCT/// 26/13 Q1008
RJBD 170900Z 35011KT 9999 FEW035 SCT/// 27/14 Q1007
RJBD 170800Z 35013KT 9999 FEW035 SCT/// 29/15 Q1007
RJBD 170700Z 35014KT 9999 FEW035 SCT/// 30/14 Q1006
RJBD 170600Z 34015KT 9999 FEW035 SCT/// 31/16 Q1006
RJBD 170500Z 34016KT 9999 FEW035 SCT/// 31/16 Q1007
RJBD 170400Z 34016KT 9999 FEW035 SCT/// 31/17 Q1007
RJBD 170300Z 34017KT 9999 FEW035 31/17 Q1008
RJBD 170200Z 33012KT 9999 FEW035 SCT/// 29/16 Q1008
RJBD 170100Z 35011KT 9999 FEW035 SCT/// 28/17 Q1009
RJBD 170000Z 35011KT 320V020 9999 FEW035 SCT/// 27/17 Q1009
RJBD 162300Z 34010KT 9999 FEW008 SCT180 BKN/// 25/17 Q1009
RJBD 162240Z 33010KT 9999 FEW008 SCT180 BKN/// 25/17 Q1009 RMK 1ST008 3AC180 A2981
RJBD 161000Z VRB02KT 9999 FEW008 SCT012 BKN050 27/26 Q1009
RJBD 160900Z 19003KT 140V230 9999 FEW008 SCT010 BKN180 27/26 Q1009
RJBD 160800Z 19005KT 140V250 9999 FEW008 SCT020 BKN/// 29/26 Q1008
RJBD 160700Z VRB04KT 9999 VCSH FEW008 SCT020 FEW025CB BKN/// 29/26 Q1009
RJBD 160600Z 19006KT 150V250 9999 FEW010 SCT020 BKN050 29/26 Q1009
RJBD 160500Z 20006KT 140V250 9999 FEW010 SCT020 BKN040 29/26 Q1009
RJBD 160400Z 18009KT 140V220 9999 FEW010 SCT015 BKN030 29/26 Q1010
RJBD 160300Z 19007KT 110V220 9999 FEW010 SCT015 BKN035 28/26 Q1010
RJBD 160200Z 19007KT 150V220 9999 FEW008 BKN015 FEW025CB BKN030 28/26 Q1011
RJBD 160100Z 13005KT 110V200 9999 FEW008 FEW025CB SCT030 BKN070 27/26 Q1011
RJBD 160005Z 17008KT 140V220 7000 -SHRA FEW002 SCT020 FEW025CB BKN030 25/24 Q1011 RMK 1ST002 4CU020 1CB025 6CU030 A2986 CB 10KM NE MOV NE
RJBD 160000Z 17010KT 140V220 4000 -SHRA BR FEW005 SCT020 FEW025CB BKN030 26/25 Q1011
RJBD 152338Z 19007G17KT 140V250 3500 -SHRA BR SCT003 BKN010 FEW025CB BKN030 27/25 Q1011 RMK 3ST003 5CU010 1CB025 6CU030 A2985 CB 10KM SW MOV NE
RJBD 152313Z 17006KT 140V220 9999 -SHRA FEW006 SCT020 FEW025CB BKN035 27/25 Q1010 RMK 1ST006 4CU020 1CB025 6CU035 A2985 CB 15KM S MOV NE
RJBD 152300Z 19010KT 4000 -SHRA BR FEW004 BKN010 FEW025CB BKN040 27/26 Q1010
RJBD 152240Z 17007KT 140V210 9999 VCSH FEW008 SCT010 FEW025CB BKN060 27/26 Q1010 RMK 1ST008 4CU010 1CB025 6SC060 A2984 CB 10KM SW MOV NE AND CB E